Time;durP1;ratioP1;P1;durP2;ratioP2;P2;SDS_P1;SDS_P2;PMS_P1;PMS_P2;Temp;Humidity;BMP_temperature;BMP_pressure;BME280_temperature;BME280_humidity;BME280_pressure;Samples;Min_cycle;Max_cycle;Signal;HPM_P1;HPM_P2
2021/09/16 00:00:25;;;;;;;5.68;0.85;;;;;;;19.01;62.00;99585.56;6220808;23;20016;-78
2021/09/16 00:02:57;;;;;;;5.32;0.95;;;;;;;18.99;61.79;99587.53;6220328;23;20032;-78
2021/09/16 00:05:24;;;;;;;4.45;0.68;;;;;;;18.99;61.64;99590.22;6219853;23;20034;-78
2021/09/16 00:08:03;;;;;;;2.55;0.80;;;;;;;18.95;62.04;99591.47;6220977;23;20035;-78
2021/09/16 00:10:30;;;;;;;3.28;0.77;;;;;;;18.99;62.08;99587.53;6220562;23;20466;-78
2021/09/16 00:13:03;;;;;;;3.38;0.90;;;;;;;18.96;61.85;99588.69;6220479;23;20028;-79
2021/09/16 00:15:29;;;;;;;4.78;0.95;;;;;;;18.99;61.75;99583.03;6220732;23;20026;-79
2021/09/16 00:17:56;;;;;;;2.25;0.90;;;;;;;18.99;61.55;99584.88;6220429;23;20027;-78
2021/09/16 00:20:26;;;;;;;2.35;0.80;;;;;;;18.97;61.40;99578.81;6220259;23;20020;-78
2021/09/16 00:22:59;;;;;;;4.38;0.82;;;;;;;18.95;61.28;99580.81;6220075;23;20024;-78
2021/09/16 00:25:26;;;;;;;2.75;0.88;;;;;;;18.95;61.00;99583.47;6220135;23;20021;-78
2021/09/16 00:28:00;;;;;;;1.45;0.60;;;;;;;18.89;61.18;99583.06;6220590;23;20351;-78
2021/09/16 00:30:27;;;;;;;5.22;0.90;;;;;;;18.91;61.13;99579.44;6220594;23;20531;-78
2021/09/16 00:32:55;;;;;;;2.80;1.00;;;;;;;18.88;61.20;99580.56;6220499;23;20026;-78
2021/09/16 00:35:22;;;;;;;2.88;0.55;;;;;;;18.87;61.06;99584.19;6220466;23;20107;-78
2021/09/16 00:37:48;;;;;;;2.33;0.82;;;;;;;18.87;61.10;99589.53;6220585;23;20457;-78
2021/09/16 00:40:19;;;;;;;2.80;0.63;;;;;;;18.84;61.13;99587.16;6220662;23;20024;-79
2021/09/16 00:42:45;;;;;;;4.70;0.90;;;;;;;18.84;61.13;99577.31;6220631;23;20316;-78
2021/09/16 00:45:14;;;;;;;5.13;1.02;;;;;;;18.83;60.81;99593.47;6220043;23;20027;-79
2021/09/16 00:47:44;;;;;;;3.80;0.70;;;;;;;18.80;60.85;99591.13;6220685;23;20325;-78
2021/09/16 00:50:16;;;;;;;2.45;0.77;;;;;;;18.80;60.85;99586.59;6220449;23;20402;-79
2021/09/16 00:52:53;;;;;;;1.55;0.77;;;;;;;18.73;60.64;99589.00;6220131;23;20020;-78
2021/09/16 00:55:22;;;;;;;4.22;1.25;;;;;;;18.76;60.85;99587.88;6220206;23;20028;-79
2021/09/16 00:57:54;;;;;;;3.28;0.70;;;;;;;18.73;61.31;99599.69;6246910;23;20020;-78
2021/09/16 01:00:22;;;;;;;3.50;1.10;;;;;;;18.73;61.10;99586.34;6220194;23;20515;-78
2021/09/16 01:02:49;;;;;;;2.95;0.90;;;;;;;18.72;61.08;99591.81;6220381;23;20346;-78
2021/09/16 01:05:22;;;;;;;2.58;0.70;;;;;;;18.67;60.91;99586.94;6220178;23;20343;-79
2021/09/16 01:07:48;;;;;;;4.20;0.80;;;;;;;18.69;60.88;99582.28;6219896;23;20028;-78
2021/09/16 01:10:16;;;;;;;1.83;0.88;;;;;;;18.67;60.42;99586.94;6220189;23;20062;-79
2021/09/16 01:12:46;;;;;;;4.05;0.85;;;;;;;18.65;60.82;99586.22;6220407;23;20491;-78
2021/09/16 01:15:13;;;;;;;4.70;0.90;;;;;;;18.64;60.57;99581.06;6220180;23;20028;-78
2021/09/16 01:17:45;;;;;;;1.65;0.68;;;;;;;18.59;60.58;99585.00;6220222;23;20020;-79
2021/09/16 01:20:12;;;;;;;3.28;0.77;;;;;;;18.60;60.43;99589.34;6219863;23;20030;-78
2021/09/16 01:22:45;;;;;;;2.10;1.00;;;;;;;18.55;60.42;99588.94;6219684;23;20026;-78
2021/09/16 01:25:12;;;;;;;6.57;0.90;;;;;;;18.55;60.76;99586.28;6219795;23;20447;-78
2021/09/16 01:27:46;;;;;;;4.05;0.95;;;;;;;18.48;60.62;99596.66;6220307;23;20440;-78
2021/09/16 01:30:13;;;;;;;4.97;0.70;;;;;;;18.48;60.28;99590.47;6220668;23;20503;-78
2021/09/16 01:32:40;;;;;;;2.65;0.50;;;;;;;18.46;60.60;99595.09;6219976;23;20107;-78
2021/09/16 01:35:07;;;;;;;3.08;0.82;;;;;;;18.41;60.60;99584.88;6246051;23;20020;-78
2021/09/16 01:37:34;;;;;;;2.03;0.68;;;;;;;18.38;60.70;99585.16;6220147;23;20492;-78
2021/09/16 01:40:01;;;;;;;3.40;1.10;;;;;;;18.33;60.77;99593.59;6220285;23;20046;-78
2021/09/16 01:42:33;;;;;;;3.15;0.80;;;;;;;18.28;60.89;99603.81;6220016;23;20431;-79
2021/09/16 01:45:00;;;;;;;4.43;1.15;;;;;;;18.25;60.45;99603.28;6219763;23;20027;-78
2021/09/16 01:47:26;;;;;;;2.10;0.70;;;;;;;18.20;60.89;99606.34;6219664;23;20024;-78
2021/09/16 01:49:53;;;;;;;1.85;0.93;;;;;;;18.16;60.67;99612.97;6220108;23;20474;-78
2021/09/16 01:52:20;;;;;;;3.28;0.80;;;;;;;18.12;60.88;99598.25;6246795;23;20016;-78
2021/09/16 01:54:47;;;;;;;3.08;0.70;;;;;;;18.07;61.38;99601.28;6220089;23;20027;-78
2021/09/16 01:57:13;;;;;;;4.70;1.17;;;;;;;18.04;61.19;99605.06;6219486;23;20024;-78
2021/09/16 01:59:40;;;;;;;5.22;1.00;;;;;;;18.03;61.30;99603.41;6219894;23;20020;-78
2021/09/16 02:02:21;;;;;;;4.45;1.20;;;;;;;17.98;61.39;99611.78;6220011;23;20022;-78
2021/09/16 02:04:48;;;;;;;4.22;1.05;;;;;;;18.01;61.53;99600.00;6219331;23;20042;-79
2021/09/16 02:07:15;;;;;;;2.30;0.90;;;;;;;18.00;61.27;99603.66;6219450;23;20035;-78
2021/09/16 02:09:41;;;;;;;1.48;0.63;;;;;;;17.98;61.16;99614.47;6246456;23;20031;-78
2021/09/16 02:12:09;;;;;;;3.40;1.00;;;;;;;17.97;61.38;99609.25;6219626;23;20027;-78
2021/09/16 02:14:40;;;;;;;1.83;1.02;;;;;;;17.92;61.30;99611.50;6219221;23;20031;-78
2021/09/16 02:17:06;;;;;;;3.35;0.80;;;;;;;17.91;61.31;99609.84;6219164;23;20020;-78
2021/09/16 02:19:33;;;;;;;4.93;1.02;;;;;;;17.88;61.31;99608.28;6219586;23;20038;-78
2021/09/16 02:22:03;;;;;;;1.83;0.90;;;;;;;17.82;61.44;99606.16;6219387;23;20103;-78
2021/09/16 02:24:30;;;;;;;3.05;0.95;;;;;;;17.79;61.68;99607.28;6219135;23;20020;-78
2021/09/16 02:26:57;;;;;;;3.28;0.95;;;;;;;17.75;61.62;99597.91;6219656;23;20028;-78
2021/09/16 02:29:24;;;;;;;3.08;0.98;;;;;;;17.71;61.73;99594.69;6220811;23;20020;-78
2021/09/16 02:31:50;;;;;;;5.68;1.27;;;;;;;17.67;61.49;99595.94;6221792;23;20030;-78
2021/09/16 02:34:36;;;;;;;3.38;0.93;;;;;;;17.60;62.24;99599.28;6221713;23;20034;-78
2021/09/16 02:37:03;;;;;;;3.95;0.85;;;;;;;17.63;61.99;99606.97;6222522;23;20346;-78
2021/09/16 02:39:29;;;;;;;4.68;0.90;;;;;;;17.59;61.87;99603.75;6221242;23;20020;-78
2021/09/16 02:41:58;;;;;;;2.78;0.70;;;;;;;17.57;62.16;99605.72;6222044;23;20020;-79
2021/09/16 02:44:25;;;;;;;3.90;1.13;;;;;;;17.57;62.00;99611.88;6221285;23;20338;-80
2021/09/16 02:46:51;;;;;;;4.32;0.93;;;;;;;17.56;62.23;99609.34;6248130;23;20027;-80
2021/09/16 02:49:18;;;;;;;3.20;1.00;;;;;;;17.55;61.90;99616.50;6221584;23;20035;-80
2021/09/16 02:51:51;;;;;;;2.97;0.90;;;;;;;17.50;62.16;99612.56;6221377;23;20021;-80
2021/09/16 02:54:18;;;;;;;2.17;0.80;;;;;;;17.51;62.08;99615.09;6220979;23;20027;-80
2021/09/16 02:56:45;;;;;;;3.17;0.90;;;;;;;17.48;62.10;99617.16;6221666;23;20435;-80
2021/09/16 02:59:11;;;;;;;2.28;0.90;;;;;;;17.45;61.78;99624.47;6221488;23;20431;-80
2021/09/16 03:01:38;;;;;;;2.10;0.63;;;;;;;17.42;61.85;99621.25;6221291;23;20439;-80
2021/09/16 03:04:06;;;;;;;5.30;1.23;;;;;;;17.38;61.91;99625.16;6221609;23;20034;-80
2021/09/16 03:06:33;;;;;;;4.75;1.30;;;;;;;17.35;62.06;99620.94;6221502;23;20347;-79
2021/09/16 03:09:00;;;;;;;4.43;1.00;;;;;;;17.30;62.10;99615.16;6221481;23;20035;-80
2021/09/16 03:11:39;;;;;;;2.72;0.95;;;;;;;17.24;62.50;99618.38;6220742;23;20020;-80
2021/09/16 03:14:05;;;;;;;4.68;0.85;;;;;;;17.23;62.23;99617.50;6220492;23;20020;-80
2021/09/16 03:16:32;;;;;;;4.35;0.90;;;;;;;17.19;62.10;99614.28;6221054;23;20461;-80
2021/09/16 03:19:11;;;;;;;5.15;0.80;;;;;;;17.13;62.66;99616.66;6221066;23;20457;-80
2021/09/16 03:21:38;;;;;;;2.05;0.88;;;;;;;17.14;62.16;99615.66;6220632;23;20020;-80
2021/09/16 03:24:09;;;;;;;4.05;1.02;;;;;;;17.08;62.57;99617.03;6220597;23;20028;-80
2021/09/16 03:26:39;;;;;;;2.67;1.10;;;;;;;17.04;62.71;99619.13;6221008;23;20021;-80
2021/09/16 03:29:05;;;;;;;3.72;1.30;;;;;;;17.01;62.60;99622.00;6220917;23;20060;-80
2021/09/16 03:31:41;;;;;;;3.28;0.90;;;;;;;16.95;63.18;99635.84;6247248;23;20339;-80
2021/09/16 03:34:08;;;;;;;3.53;1.10;;;;;;;16.95;62.92;99635.84;6220548;23;20020;-80
2021/09/16 03:36:44;;;;;;;5.85;1.20;;;;;;;16.90;63.29;99632.75;6221142;23;20339;-80
2021/09/16 03:39:11;;;;;;;6.35;1.40;;;;;;;16.91;62.89;99631.75;6220822;23;20026;-80
2021/09/16 03:41:44;;;;;;;3.10;1.00;;;;;;;16.85;63.35;99635.78;6220836;23;20488;-80
2021/09/16 03:44:11;;;;;;;3.85;0.98;;;;;;;16.85;63.11;99633.13;6220537;23;20020;-80
2021/09/16 03:46:38;;;;;;;2.33;0.90;;;;;;;16.83;63.09;99639.56;6221116;23;20074;-79
2021/09/16 03:49:06;;;;;;;2.42;0.88;;;;;;;16.78;63.20;99638.13;6220659;23;20107;-79
2021/09/16 03:51:32;;;;;;;4.63;1.23;;;;;;;16.77;63.20;99638.25;6220371;23;20020;-80
2021/09/16 03:53:59;;;;;;;4.18;1.23;;;;;;;16.76;63.60;99634.78;6221605;23;20320;-80
2021/09/16 03:56:31;;;;;;;2.80;1.00;;;;;;;16.73;63.96;99635.03;6220582;23;20020;-80
2021/09/16 03:58:58;;;;;;;2.47;0.80;;;;;;;16.76;63.59;99640.09;6220364;23;20020;-80
2021/09/16 04:01:24;;;;;;;2.35;0.93;;;;;;;16.77;63.70;99635.59;6220846;23;20039;-80
2021/09/16 04:03:54;;;;;;;5.38;1.00;;;;;;;16.76;63.79;99636.56;6220766;23;20028;-80
2021/09/16 04:06:21;;;;;;;2.67;1.27;;;;;;;16.77;63.46;99638.25;6247439;23;20448;-80
2021/09/16 04:08:50;;;;;;;7.78;1.38;;;;;;;16.74;63.31;99636.69;6220430;23;20035;-79
2021/09/16 04:11:16;;;;;;;3.38;1.10;;;;;;;16.73;63.35;99632.38;6220289;23;20020;-79
2021/09/16 04:13:43;;;;;;;5.32;1.20;;;;;;;16.71;63.34;99631.63;6220611;23;20070;-80
2021/09/16 04:16:22;;;;;;;3.20;1.20;;;;;;;16.65;63.94;99642.81;6220663;23;20522;-80
2021/09/16 04:18:49;;;;;;;2.53;1.10;;;;;;;16.68;63.41;99647.88;6220349;23;20027;-80
2021/09/16 04:21:15;;;;;;;5.32;1.40;;;;;;;16.66;63.63;99642.69;6220358;23;20022;-80
2021/09/16 04:23:42;;;;;;;1.92;1.13;;;;;;;16.63;63.61;99640.28;6220491;23;20026;-80
2021/09/16 04:26:09;;;;;;;4.60;1.63;;;;;;;16.62;63.63;99645.72;6220297;23;20028;-80
2021/09/16 04:28:36;;;;;;;2.80;1.33;;;;;;;16.61;63.70;99649.34;6220749;23;20027;-79
2021/09/16 04:31:02;;;;;;;4.68;1.50;;;;;;;16.59;63.81;99646.00;6220147;23;20086;-79
2021/09/16 04:33:38;;;;;;;6.10;1.50;;;;;;;16.53;64.45;99656.13;6220655;23;20028;-79
2021/09/16 04:36:05;;;;;;;3.22;1.58;;;;;;;16.56;64.05;99656.88;6220515;23;20031;-79
2021/09/16 04:38:32;;;;;;;5.47;1.27;;;;;;;16.55;64.40;99650.69;6220526;23;20435;-80
2021/09/16 04:40:58;;;;;;;4.15;1.88;;;;;;;16.54;64.33;99657.84;6220472;23;20028;-80
2021/09/16 04:43:25;;;;;;;4.70;1.70;;;;;;;16.54;64.39;99654.34;6247292;23;20320;-79
2021/09/16 04:46:06;;;;;;;2.50;1.33;;;;;;;16.52;65.02;99653.63;6220464;23;20024;-79
2021/09/16 04:48:33;;;;;;;5.15;1.95;;;;;;;16.57;64.23;99650.59;6220048;23;20027;-80
2021/09/16 04:50:59;;;;;;;2.53;1.48;;;;;;;16.57;64.51;99651.44;6219818;23;20027;-79
2021/09/16 04:53:34;;;;;;;5.95;2.15;;;;;;;16.56;64.87;99641.75;6220019;23;20024;-79
2021/09/16 04:56:01;;;;;;;3.38;1.75;;;;;;;16.61;64.54;99649.34;6220554;23;20020;-80
2021/09/16 04:58:28;;;;;;;4.93;1.77;;;;;;;16.62;64.58;99641.25;6220443;23;20054;-80
2021/09/16 05:00:59;;;;;;;5.20;2.03;;;;;;;16.61;64.71;99649.34;6220276;23;20023;-79
2021/09/16 05:03:26;;;;;;;8.43;2.13;;;;;;;16.65;64.45;99645.47;6220447;23;20031;-80
2021/09/16 05:05:53;;;;;;;5.22;1.85;;;;;;;16.65;64.33;99645.47;6220228;23;20020;-80
2021/09/16 05:08:26;;;;;;;6.22;1.80;;;;;;;16.63;64.71;99653.56;6219603;23;20026;-79
2021/09/16 05:10:53;;;;;;;6.22;1.80;;;;;;;16.66;64.56;99644.47;6246579;23;20044;-80
2021/09/16 05:13:20;;;;;;;4.32;1.70;;;;;;;16.66;64.42;99644.47;6220010;23;20432;-80
2021/09/16 05:15:51;;;;;;;3.13;1.70;;;;;;;16.62;64.74;99649.22;6219788;23;20028;-79
2021/09/16 05:18:17;;;;;;;4.85;1.67;;;;;;;16.64;64.57;99646.44;6219639;23;20032;-80
2021/09/16 05:20:44;;;;;;;3.67;1.70;;;;;;;16.62;64.61;99651.03;6220641;23;20024;-80
2021/09/16 05:23:12;;;;;;;5.80;1.45;;;;;;;16.60;64.59;99655.66;6220040;23;20024;-80
2021/09/16 05:25:47;;;;;;;6.25;1.92;;;;;;;16.58;65.14;99652.25;6219956;23;20027;-80
2021/09/16 05:28:14;;;;;;;4.63;1.83;;;;;;;16.59;64.72;99662.75;6219707;23;20028;-80
2021/09/16 05:30:41;;;;;;;5.93;1.50;;;;;;;16.59;64.91;99659.28;6219359;23;20020;-80
2021/09/16 05:33:09;;;;;;;4.38;1.60;;;;;;;16.59;64.77;99656.63;6219565;23;20016;-80
2021/09/16 05:35:37;;;;;;;5.20;1.90;;;;;;;16.58;65.02;99655.78;6219894;23;20020;-80
2021/09/16 05:38:04;;;;;;;3.67;1.75;;;;;;;16.60;65.09;99664.44;6219899;23;20020;-80
2021/09/16 05:40:32;;;;;;;5.00;1.60;;;;;;;16.61;65.28;99659.97;6219581;23;20099;-81
2021/09/16 05:42:58;;;;;;;3.03;1.80;;;;;;;16.62;65.34;99656.34;6219464;23;20024;-80
2021/09/16 05:45:26;;;;;;;5.53;1.80;;;;;;;16.63;65.49;99663.38;6219854;23;20411;-80
2021/09/16 05:47:53;;;;;;;7.32;2.28;;;;;;;16.65;65.54;99664.91;6219597;23;20034;-80
2021/09/16 05:50:20;;;;;;;6.75;2.08;;;;;;;16.66;65.54;99668.41;6219927;23;20020;-80
2021/09/16 05:52:59;;;;;;;8.60;2.30;;;;;;;16.63;66.20;99668.69;6245911;23;20020;-80
2021/09/16 05:55:26;;;;;;;5.22;2.05;;;;;;;16.66;65.59;99671.91;6219787;23;20685;-80
2021/09/16 05:57:56;;;;;;;3.40;2.00;;;;;;;16.66;66.16;99666.59;6219785;23;20343;-80
2021/09/16 06:00:23;;;;;;;3.17;2.20;;;;;;;16.67;65.74;99678.06;6219595;23;20026;-81
2021/09/16 06:02:50;;;;;;;3.97;2.05;;;;;;;16.66;65.83;99674.56;6219947;23;20457;-80
2021/09/16 06:05:19;;;;;;;4.53;1.73;;;;;;;16.65;66.11;99670.22;6221375;23;20024;-80
2021/09/16 06:07:46;;;;;;;6.32;2.13;;;;;;;16.67;65.88;99670.94;6221863;23;20020;-80
2021/09/16 06:10:13;;;;;;;3.15;2.15;;;;;;;16.67;66.02;99676.25;6221615;23;20028;-80
2021/09/16 06:12:52;;;;;;;7.68;2.35;;;;;;;16.63;66.67;99669.50;6221377;23;20024;-80
2021/09/16 06:15:19;;;;;;;5.32;2.22;;;;;;;16.69;66.23;99678.78;6221886;23;20521;-80
2021/09/16 06:17:50;;;;;;;5.72;2.03;;;;;;;16.68;66.97;99693.03;6221394;23;20021;-80
2021/09/16 06:20:17;;;;;;;4.22;2.30;;;;;;;16.70;66.14;99688.44;6221364;23;20020;-80
2021/09/16 06:22:49;;;;;;;3.83;2.33;;;;;;;16.69;67.13;99689.41;6248080;23;20776;-80
2021/09/16 06:25:29;;;;;;;4.80;2.20;;;;;;;16.70;67.00;99691.09;6221075;23;20031;-80
2021/09/16 06:27:56;;;;;;;5.25;2.42;;;;;;;16.77;66.50;99697.59;6221306;23;20027;-80
2021/09/16 06:30:24;;;;;;;6.38;2.53;;;;;;;16.79;66.55;99697.47;6222034;23;20024;-81
2021/09/16 06:32:50;;;;;;;4.07;2.60;;;;;;;16.83;66.70;99701.53;6221671;23;20046;-80
2021/09/16 06:35:18;;;;;;;6.13;2.50;;;;;;;16.86;66.72;99697.78;6221489;23;20024;-80
2021/09/16 06:38:03;;;;;;;3.40;2.40;;;;;;;16.85;67.20;99706.75;6221269;23;20024;-80
2021/09/16 06:40:30;;;;;;;4.00;2.35;;;;;;;16.90;66.51;99708.00;6221427;23;20020;-80
2021/09/16 06:42:57;;;;;;;4.78;2.50;;;;;;;16.90;66.61;99705.34;6247818;23;20020;-80
2021/09/16 06:45:24;;;;;;;5.28;2.47;;;;;;;16.93;66.93;99714.88;6221181;23;20028;-79
2021/09/16 06:47:51;;;;;;;4.70;2.65;;;;;;;16.96;67.04;99716.47;6247738;23;20035;-80
2021/09/16 06:50:18;;;;;;;4.55;2.83;;;;;;;17.00;67.08;99724.03;6248635;23;20050;-80
2021/09/16 06:52:45;;;;;;;3.28;2.97;;;;;;;17.03;67.18;99717.59;6220931;23;20027;-80
2021/09/16 06:55:11;;;;;;;7.93;2.92;;;;;;;17.05;66.94;99716.53;6220969;23;20020;-80
2021/09/16 06:57:38;;;;;;;4.65;2.45;;;;;;;17.08;66.95;99720.75;6247975;23;20021;-80
2021/09/16 07:00:16;;;;;;;4.40;2.55;;;;;;;17.05;67.47;99721.84;6221406;23;20034;-80
2021/09/16 07:02:48;;;;;;;4.68;2.80;;;;;;;17.10;67.66;99720.63;6221442;23;20432;-80
2021/09/16 07:05:25;;;;;;;4.40;2.93;;;;;;;17.11;67.77;99717.84;6221448;23;20482;-80
2021/09/16 07:07:51;;;;;;;4.28;2.78;;;;;;;17.17;67.33;99727.97;6248039;23;20024;-80
2021/09/16 07:10:23;;;;;;;7.45;3.15;;;;;;;17.18;67.74;99728.78;6221347;23;20034;-80
2021/09/16 07:12:50;;;;;;;7.30;3.35;;;;;;;17.23;67.01;99728.41;6220899;23;20103;-80
2021/09/16 07:15:18;;;;;;;4.80;2.90;;;;;;;17.24;67.11;99736.25;6247272;23;20520;-80
2021/09/16 07:17:44;;;;;;;4.63;2.83;;;;;;;17.26;67.19;99728.13;6221295;23;20122;-80
2021/09/16 07:20:13;;;;;;;5.75;2.95;;;;;;;17.28;67.66;99721.72;6221288;23;20317;-80
2021/09/16 07:22:40;;;;;;;5.82;3.05;;;;;;;17.32;67.43;99722.28;6220876;23;20023;-80
2021/09/16 07:25:20;;;;;;;4.43;2.92;;;;;;;17.32;68.16;99728.44;6221110;23;20055;-80
2021/09/16 07:27:47;;;;;;;5.18;3.35;;;;;;;17.41;67.69;99717.97;6221118;23;20020;-80
2021/09/16 07:30:16;;;;;;;10.13;3.20;;;;;;;17.45;68.06;99722.91;6220865;23;20020;-80
2021/09/16 07:32:43;;;;;;;7.10;2.78;;;;;;;17.53;67.45;99730.22;6221619;23;20024;-80
2021/09/16 07:35:10;;;;;;;7.75;3.67;;;;;;;17.58;67.62;99730.66;6220681;23;20020;-80
2021/09/16 07:37:39;;;;;;;6.90;3.03;;;;;;;17.63;67.31;99732.94;6221047;23;20101;-80
2021/09/16 07:40:06;;;;;;;6.35;3.22;;;;;;;17.69;67.62;99739.53;6220808;23;20034;-80
2021/09/16 07:42:34;;;;;;;6.70;3.13;;;;;;;17.74;67.66;99734.66;6221356;23;20024;-79
2021/09/16 07:45:01;;;;;;;5.45;3.35;;;;;;;17.80;67.81;99735.94;6220528;23;20024;-80
2021/09/16 07:47:28;;;;;;;6.05;3.17;;;;;;;17.87;67.97;99738.91;6220807;23;20020;-80
2021/09/16 07:50:04;;;;;;;4.85;2.92;;;;;;;17.90;67.84;99744.78;6220717;23;20034;-80
2021/09/16 07:52:31;;;;;;;6.32;3.50;;;;;;;17.99;67.47;99745.81;6221024;23;20024;-80
2021/09/16 07:55:00;;;;;;;5.90;3.60;;;;;;;18.03;67.62;99741.03;6220792;23;20466;-80
2021/09/16 07:57:27;;;;;;;4.60;3.40;;;;;;;18.10;67.59;99739.56;6220557;23;20099;-79
2021/09/16 08:00:05;;;;;;;6.00;3.30;;;;;;;18.13;68.14;99741.91;6220927;23;20020;-80
2021/09/16 08:02:31;;;;;;;6.47;3.50;;;;;;;18.23;67.60;99745.47;6247098;23;20030;-79
2021/09/16 08:04:58;;;;;;;6.47;3.55;;;;;;;18.31;68.14;99747.44;6220396;23;20024;-80
2021/09/16 08:07:25;;;;;;;6.75;3.40;;;;;;;18.40;67.98;99742.25;6221051;23;20024;-80
2021/09/16 08:09:56;;;;;;;5.65;3.00;;;;;;;18.48;68.00;99748.59;6220827;23;20458;-80
2021/09/16 08:12:22;;;;;;;9.88;3.65;;;;;;;18.59;67.69;99750.28;6220215;23;20026;-81
2021/09/16 08:15:04;;;;;;;9.38;3.53;;;;;;;18.61;66.84;99753.63;6219876;23;20031;-82
2021/09/16 08:17:32;;;;;;;4.38;2.88;;;;;;;18.72;67.29;99754.47;6220117;23;20024;-81
2021/09/16 08:20:00;;;;;;;3.25;2.95;;;;;;;18.78;67.30;99753.91;6220274;23;20062;-81
2021/09/16 08:22:27;;;;;;;5.43;3.13;;;;;;;18.83;66.76;99751.66;6220337;23;20016;-82
2021/09/16 08:24:57;;;;;;;8.73;3.33;;;;;;;18.87;66.83;99752.19;6219522;23;20455;-81
2021/09/16 08:27:24;;;;;;;5.43;3.13;;;;;;;18.93;66.66;99750.81;6219331;23;20017;-82
2021/09/16 08:29:50;;;;;;;8.20;3.33;;;;;;;18.96;66.56;99751.38;6220571;23;20020;-82
2021/09/16 08:32:18;;;;;;;5.30;3.22;;;;;;;19.02;67.07;99755.28;6220156;23;20020;-81
2021/09/16 08:34:54;;;;;;;6.57;3.00;;;;;;;19.06;66.46;99756.72;6220747;23;20020;-81
2021/09/16 08:37:21;;;;;;;9.25;3.15;;;;;;;19.14;66.60;99759.50;6220503;23;20027;-81
2021/09/16 08:39:48;;;;;;;5.22;2.83;;;;;;;19.20;66.66;99765.25;6220032;23;20027;-82
2021/09/16 08:42:17;;;;;;;6.40;3.38;;;;;;;19.24;66.23;99756.81;6246542;23;20016;-82
2021/09/16 08:44:45;;;;;;;5.22;3.03;;;;;;;19.27;66.59;99755.69;6219733;23;20459;-82
2021/09/16 08:47:14;;;;;;;5.15;3.38;;;;;;;19.34;65.96;99759.47;6219993;23;20020;-82
2021/09/16 08:49:44;;;;;;;6.28;2.70;;;;;;;19.39;66.20;99757.22;6219883;23;20020;-82
2021/09/16 08:52:11;;;;;;;6.68;3.05;;;;;;;19.46;66.12;99759.28;6220224;23;20050;-82
2021/09/16 08:54:41;;;;;;;6.38;3.13;;;;;;;19.52;65.93;99759.53;6220279;23;20032;-82
2021/09/16 08:57:13;;;;;;;6.80;3.15;;;;;;;19.57;65.80;99766.28;6220415;23;20034;-81
2021/09/16 08:59:44;;;;;;;4.68;3.03;;;;;;;19.58;65.57;99763.47;6220476;23;20347;-82
2021/09/16 09:02:11;;;;;;;6.22;3.10;;;;;;;19.62;64.89;99764.03;6219771;23;20020;-82
2021/09/16 09:04:43;;;;;;;9.57;3.20;;;;;;;19.60;65.05;99761.50;6219684;23;20034;-82
2021/09/16 09:07:19;;;;;;;7.35;3.05;;;;;;;19.60;65.07;99769.50;6220406;23;20103;-82
2021/09/16 09:09:51;;;;;;;9.50;2.83;;;;;;;19.59;65.42;99769.66;6246456;23;20354;-82
2021/09/16 09:12:18;;;;;;;7.63;3.30;;;;;;;19.61;65.53;99765.84;6219692;23;20091;-82
2021/09/16 09:14:56;;;;;;;8.20;3.08;;;;;;;19.63;66.38;99765.69;6219109;23;20020;-81
2021/09/16 09:17:26;;;;;;;5.03;2.97;;;;;;;19.71;66.40;99759.63;6219990;23;20443;-82
2021/09/16 09:20:10;;;;;;;7.03;3.30;;;;;;;19.73;65.46;99763.00;6219342;23;20024;-82
2021/09/16 09:23:01;;;;;;;7.45;3.20;;;;;;;19.80;65.03;99761.41;6219452;23;20016;-81
2021/09/16 09:25:54;;;;;;;8.50;2.70;;;;;;;19.80;65.63;99772.09;6094386;23;20499;-82
2021/09/16 09:28:28;;;;;;;3.70;2.75;;;;;;;19.81;65.33;99776.44;6218718;23;20074;-79
2021/09/16 09:31:13;;;;;;;6.45;3.38;;;;;;;19.80;65.26;99774.75;6218421;23;20020;-80
2021/09/16 09:33:40;;;;;;;4.65;2.60;;;;;;;19.84;65.32;99786.81;6219009;23;20343;-80
2021/09/16 09:36:11;;;;;;;5.05;2.80;;;;;;;19.83;65.29;99777.13;6219021;23;20024;-80
2021/09/16 09:39:01;;;;;;;6.30;2.90;;;;;;;19.82;65.92;99780.81;6218217;23;20020;-80
2021/09/16 09:41:34;;;;;;;6.05;3.10;;;;;;;19.88;65.79;99780.19;6218773;23;20032;-79
2021/09/16 09:44:08;;;;;;;5.78;2.85;;;;;;;19.94;65.37;99770.75;6218879;23;20024;-80
2021/09/16 09:46:44;;;;;;;3.35;1.98;;;;;;;19.97;65.14;99758.94;6218703;23;20054;-79
2021/09/16 09:49:15;;;;;;;4.22;2.45;;;;;;;20.01;64.66;99758.53;6218433;23;20031;-80
2021/09/16 09:52:01;;;;;;;5.72;2.10;;;;;;;20.07;64.67;99758.91;6218565;23;20024;-80
2021/09/16 09:54:33;;;;;;;4.50;2.00;;;;;;;20.15;65.41;99764.34;6218812;23;20020;-79
2021/09/16 09:57:39;;;;;;;6.47;2.63;;;;;;;20.25;66.03;99762.44;6218439;23;20082;-80
2021/09/16 10:00:11;;;;;;;3.38;2.10;;;;;;;20.45;65.16;99767.69;6208657;23;20047;-79
2021/09/16 10:02:53;;;;;;;5.68;2.40;;;;;;;20.62;65.05;99765.13;6219304;23;20023;-80
2021/09/16 10:05:34;;;;;;;5.35;2.03;;;;;;;20.79;64.23;99766.13;6217942;23;20035;-80
2021/09/16 10:08:16;;;;;;;5.47;2.00;;;;;;;20.91;63.00;99775.66;6243672;23;20487;-80
2021/09/16 10:11:05;;;;;;;3.78;1.83;;;;;;;21.03;62.40;99780.72;6217367;23;20020;-79
2021/09/16 10:13:34;;;;;;;3.55;1.85;;;;;;;21.11;62.53;99780.78;6216959;23;20020;-80
2021/09/16 10:16:04;;;;;;;3.80;2.10;;;;;;;21.12;61.37;99779.78;6217500;23;20038;-80
2021/09/16 10:18:32;;;;;;;4.90;1.95;;;;;;;21.13;61.61;99784.19;6218243;23;20028;-80
2021/09/16 10:21:00;;;;;;;4.28;1.75;;;;;;;21.11;61.31;99775.44;6218243;23;20035;-79
2021/09/16 10:23:28;;;;;;;3.17;1.70;;;;;;;21.09;61.22;99783.63;6218460;23;20398;-79
2021/09/16 10:25:56;;;;;;;3.78;2.00;;;;;;;21.06;61.04;99788.47;6244291;23;20020;-79
2021/09/16 10:28:35;;;;;;;4.63;1.98;;;;;;;21.00;61.49;99803.28;6168335;23;1179221;-79
2021/09/16 10:31:25;;;;;;;4.35;1.80;;;;;;;20.90;61.86;99802.56;6219819;23;20099;-80
2021/09/16 10:33:53;;;;;;;5.05;2.20;;;;;;;20.90;62.05;99806.03;6219570;23;20024;-81
2021/09/16 10:36:20;;;;;;;3.88;1.83;;;;;;;20.88;62.48;99807.19;6219714;23;20020;-81
2021/09/16 10:38:49;;;;;;;3.33;1.70;;;;;;;20.83;62.38;99807.66;6219255;23;20055;-81
2021/09/16 10:41:18;;;;;;;3.58;1.85;;;;;;;20.82;62.40;99805.97;6219642;23;20020;-81
2021/09/16 10:44:18;;;;;;;5.90;2.45;;;;;;;20.76;62.75;99804.75;6219381;23;20024;-81
2021/09/16 10:46:46;;;;;;;4.10;2.00;;;;;;;20.81;62.21;99806.94;6219306;23;20103;-81
2021/09/16 10:49:20;;;;;;;4.22;2.30;;;;;;;20.76;61.93;99811.91;6220260;23;20024;-81
2021/09/16 10:51:54;;;;;;;3.80;2.00;;;;;;;20.70;61.48;99811.53;6221324;23;20043;-81
2021/09/16 10:54:29;;;;;;;4.78;1.75;;;;;;;20.68;61.72;99807.34;6247459;23;20016;-81
2021/09/16 10:57:38;;;;;;;6.50;2.28;;;;;;;20.63;61.79;99810.47;6221457;23;20028;-81
2021/09/16 11:00:06;;;;;;;3.97;1.98;;;;;;;20.63;62.03;99805.09;6221287;23;20054;-81
2021/09/16 11:02:45;;;;;;;4.15;1.52;;;;;;;20.56;61.84;99804.06;6221569;23;20340;-81
2021/09/16 11:05:18;;;;;;;4.05;1.73;;;;;;;20.57;62.49;99800.38;6218365;23;20059;-81
2021/09/16 11:07:49;;;;;;;3.70;1.52;;;;;;;20.61;62.51;99803.56;6220845;23;20099;-81
2021/09/16 11:10:53;;;;;;;4.72;1.63;;;;;;;20.61;62.78;99801.75;6221348;23;20024;-81
2021/09/16 11:13:37;;;;;;;2.25;1.08;;;;;;;20.69;62.56;99804.50;6100801;23;20145;-81
2021/09/16 11:16:05;;;;;;;2.45;1.05;;;;;;;20.78;62.49;99797.38;6213271;23;20024;-81
2021/09/16 11:18:42;;;;;;;2.30;1.30;;;;;;;20.90;62.98;99811.41;6223408;23;20035;-81
2021/09/16 11:21:10;;;;;;;1.65;1.13;;;;;;;21.02;62.45;99812.03;6220726;23;20451;-81
2021/09/16 11:23:43;;;;;;;4.00;1.20;;;;;;;21.17;61.96;99806.09;6220653;23;20027;-81
2021/09/16 11:26:19;;;;;;;3.40;1.25;;;;;;;21.29;61.78;99795.97;6247687;23;20064;-81
2021/09/16 11:28:57;;;;;;;2.20;1.17;;;;;;;21.47;62.59;99799.47;6220845;23;20038;-81
2021/09/16 11:31:25;;;;;;;2.08;1.33;;;;;;;21.82;64.75;99795.97;6220684;23;20024;-81
2021/09/16 11:34:07;;;;;;;1.83;0.90;;;;;;;22.30;63.57;99800.84;6220767;23;20331;-79
2021/09/16 11:36:34;;;;;;;2.60;1.10;;;;;;;22.92;64.81;99805.00;6221239;23;20447;-81
2021/09/16 11:39:18;;;;;;;2.38;1.33;;;;;;;23.65;61.57;99796.19;6220813;23;20032;-81
2021/09/16 11:41:45;;;;;;;4.47;1.30;;;;;;;24.38;63.76;99796.09;6247013;23;20035;-81
2021/09/16 11:44:11;;;;;;;4.07;1.30;;;;;;;25.12;61.75;99788.50;6221144;23;20023;-81
2021/09/16 11:46:38;;;;;;;2.60;1.10;;;;;;;25.79;59.33;99798.63;6221082;23;20335;-81
2021/09/16 11:49:05;;;;;;;2.17;1.13;;;;;;;26.27;55.91;99784.69;6220466;23;20035;-81